Terminal Aerodrome Forecast
Issued by NWS Buffalo, NY

Home | Current Version | Previous Version | Text Only | Print | Product List | Glossary On
Versions: 1 2 3 4 5 6 7 8 9 10 11 12 13 14 15 16 17 18 19 20 21 22 23 24 25 26 27
000
FTUS41 KBUF 290535
TAFART
TAF
KART 290535Z 2906/3006 08004KT P6SM SKC
     FM290900 16005KT P6SM BKN100
     FM291100 19006KT P6SM BKN080
     FM291200 19006KT 4SM -SHRA VCTS BKN060CB
     FM291400 21007KT P6SM BKN060
     FM292300 21007KT P6SM VCSH BKN120
     FM300200 20006KT P6SM BKN100=

USA.gov is the U.S. government's official web portal to all federal, state and local government web resources and services.